Terminal Aerodrome Forecast
Issued by NWS

Home | Current Version | Previous Version | Text Only | Print | Product List | Glossary On
Versions: 1 2 3 4 5 6 7 8 9 10 11 12 13 14 15 16 17 18 19 20 21 22
196
FTUS43 KABR 301120
TAFATY
TAF
KATY 301120Z 3012/3112 20008KT P6SM BKN150
     FM301500 16011KT P6SM SCT250
     FM310200 16014KT P6SM SHRA VCTS SCT060CB BKN090
     FM310900 25008KT P6SM BKN200=

USA.gov is the U.S. government's official web portal to all federal, state and local government web resources and services.